Time;durP1;ratioP1;P1;durP2;ratioP2;P2;SDS_P1;SDS_P2;PMS_P1;PMS_P2;Temp;Humidity;BMP_temperature;BMP_pressure;BME280_temperature;BME280_humidity;BME280_pressure;Samples;Min_cycle;Max_cycle;Signal;HPM_P1;HPM_P2
2021/07/24 00:01:06;;;;;;;18.27;13.55;;;;;;;19.01;70.76;100451.56;5001405;28;20088;-82
2021/07/24 00:03:31;;;;;;;15.32;12.93;;;;;;;18.95;71.34;100452.72;5011414;28;20038;-82
2021/07/24 00:05:56;;;;;;;15.70;12.90;;;;;;;18.99;70.61;100446.31;5010409;28;20043;-82
2021/07/24 00:08:22;;;;;;;15.63;13.00;;;;;;;18.99;70.87;100456.13;5013570;28;20038;-81
2021/07/24 00:10:47;;;;;;;15.40;13.50;;;;;;;18.97;70.59;100452.66;5009710;28;20034;-82
2021/07/24 00:13:12;;;;;;;15.07;12.65;;;;;;;19.00;71.04;100448.03;5012629;28;20076;-82
2021/07/24 00:15:38;;;;;;;15.40;13.48;;;;;;;19.03;70.60;100447.03;5010242;28;20035;-82
2021/07/24 00:18:03;;;;;;;14.88;12.38;;;;;;;19.05;70.16;100443.38;5011275;28;20088;-82
2021/07/24 00:20:28;;;;;;;14.77;13.13;;;;;;;19.09;70.01;100432.53;5010809;28;20033;-82
2021/07/24 00:22:54;;;;;;;15.63;13.10;;;;;;;19.08;69.90;100437.00;5006730;28;20062;-82
2021/07/24 00:25:19;;;;;;;17.02;14.32;;;;;;;19.07;70.12;100429.03;5009802;28;20092;-82
2021/07/24 00:27:44;;;;;;;16.73;14.43;;;;;;;19.02;70.45;100427.44;5011932;28;20092;-82
2021/07/24 00:30:10;;;;;;;16.73;14.07;;;;;;;18.94;70.69;100423.34;5008127;28;20042;-82
2021/07/24 00:32:37;;;;;;;16.65;13.75;;;;;;;18.90;70.40;100429.78;4991309;28;20045;-82
2021/07/24 00:35:03;;;;;;;15.68;14.00;;;;;;;18.90;69.70;100432.44;5011919;28;20117;-82
2021/07/24 00:37:28;;;;;;;15.95;14.13;;;;;;;18.92;70.41;100425.25;5010283;28;20049;-82
2021/07/24 00:39:54;;;;;;;18.00;15.15;;;;;;;18.93;70.34;100424.28;5011187;28;20109;-82
2021/07/24 00:42:23;;;;;;;17.00;14.27;;;;;;;18.94;70.41;100423.34;5011053;28;20033;-82
2021/07/24 00:44:56;;;;;;;17.48;14.43;;;;;;;18.91;70.21;100427.00;5010119;28;20068;-82
2021/07/24 00:47:28;;;;;;;20.55;15.23;;;;;;;18.86;70.61;100420.13;5010161;28;20029;-82
2021/07/24 00:50:06;;;;;;;16.95;15.02;;;;;;;18.82;70.58;100409.56;5024453;28;20166;-81
2021/07/24 00:52:32;;;;;;;20.73;14.85;;;;;;;18.83;70.31;100408.63;5009350;28;20062;-82
2021/07/24 00:54:57;;;;;;;17.33;14.15;;;;;;;18.88;70.28;100413.78;5010853;28;20038;-82
2021/07/24 00:57:23;;;;;;;18.90;15.50;;;;;;;18.86;70.40;100414.78;5009773;28;20056;-82
2021/07/24 00:59:48;;;;;;;16.48;13.73;;;;;;;18.71;71.08;100409.13;5006580;28;20037;-82
2021/07/24 01:02:14;;;;;;;18.58;13.02;;;;;;;18.65;71.33;100408.50;5011370;28;20038;-82
2021/07/24 01:04:40;;;;;;;16.15;13.02;;;;;;;18.66;71.28;100399.56;5009095;28;20033;-82
2021/07/24 01:07:06;;;;;;;16.83;14.88;;;;;;;18.70;71.51;100401.16;5021371;28;20034;-81
2021/07/24 01:09:33;;;;;;;19.83;15.77;;;;;;;18.76;71.04;100398.28;5009249;28;20519;-81
2021/07/24 01:12:01;;;;;;;18.35;14.48;;;;;;;18.81;71.04;100394.47;5011639;28;20060;-82
2021/07/24 01:14:31;;;;;;;18.63;15.05;;;;;;;18.88;70.50;100391.53;5007804;28;20030;-82
2021/07/24 01:16:56;;;;;;;16.52;14.38;;;;;;;18.91;70.51;100386.91;5024231;28;20040;-82
2021/07/24 01:19:27;;;;;;;18.13;14.85;;;;;;;18.96;70.51;100390.25;5006893;28;20058;-82
2021/07/24 01:21:53;;;;;;;17.98;15.85;;;;;;;18.98;70.87;100392.88;5008662;28;20038;-82
2021/07/24 01:24:19;;;;;;;17.50;15.27;;;;;;;18.95;70.90;100388.53;5006645;28;20026;-82
2021/07/24 01:26:47;;;;;;;16.90;14.57;;;;;;;18.97;70.93;100392.00;5010129;28;20084;-82
2021/07/24 01:29:14;;;;;;;17.00;13.68;;;;;;;18.97;70.63;100385.78;5007894;28;20501;-82
2021/07/24 01:31:41;;;;;;;16.63;13.93;;;;;;;18.91;71.36;100386.03;5006090;28;20097;-82
2021/07/24 01:34:07;;;;;;;17.35;14.02;;;;;;;18.77;71.53;100390.19;5015612;28;20042;-82
2021/07/24 01:36:35;;;;;;;16.92;14.27;;;;;;;18.77;71.67;100384.81;5008009;28;20093;-82
2021/07/24 01:39:01;;;;;;;18.65;15.13;;;;;;;18.76;72.07;100387.59;5009448;28;20476;-82
2021/07/24 01:41:26;;;;;;;15.30;13.70;;;;;;;18.87;71.31;100384.44;5009071;28;20052;-82
2021/07/24 01:43:52;;;;;;;17.35;15.10;;;;;;;18.91;71.40;100375.34;5003963;28;20069;-82
2021/07/24 01:46:17;;;;;;;17.52;14.85;;;;;;;18.95;71.43;100388.53;5007425;28;20044;-82
2021/07/24 01:54:29;;;;;;;19.38;16.60;;;;;;;18.83;71.58;100379.22;5009078;28;20034;-82
2021/07/24 01:56:56;;;;;;;17.60;15.37;;;;;;;18.81;71.53;100382.88;5008974;28;20400;-82
2021/07/24 01:59:27;;;;;;;17.25;14.85;;;;;;;18.82;71.76;100374.81;5004802;28;20030;-82
2021/07/24 02:01:55;;;;;;;16.27;14.30;;;;;;;18.74;71.81;100370.69;5009817;28;20037;-82
2021/07/24 02:04:24;;;;;;;18.17;15.18;;;;;;;18.67;71.97;100372.75;4992226;28;20120;-82
2021/07/24 02:06:56;;;;;;;18.35;15.88;;;;;;;18.61;72.20;100370.34;5009189;28;20050;-82
2021/07/24 02:09:27;;;;;;;16.92;14.15;;;;;;;18.50;72.64;100369.94;5007146;28;20064;-82
2021/07/24 02:11:58;;;;;;;18.48;14.15;;;;;;;18.46;72.40;100365.63;5005639;28;20058;-82
2021/07/24 02:14:28;;;;;;;17.55;14.65;;;;;;;18.42;72.71;100366.69;5009297;28;20042;-82
2021/07/24 02:17:03;;;;;;;18.77;16.38;;;;;;;18.38;72.71;100363.28;5006451;28;20034;-82
2021/07/24 02:19:36;;;;;;;16.90;14.20;;;;;;;18.34;72.59;100370.56;5009972;28;20032;-82
2021/07/24 02:22:03;;;;;;;18.48;16.27;;;;;;;18.33;72.12;100366.13;5006724;28;20378;-82
2021/07/24 02:24:29;;;;;;;17.88;15.02;;;;;;;18.33;71.75;100362.59;5010446;28;20057;-82
2021/07/24 02:26:55;;;;;;;16.58;14.27;;;;;;;18.30;71.54;100360.91;5006204;28;20070;-82
2021/07/24 02:29:35;;;;;;;19.13;15.73;;;;;;;18.25;71.63;100362.91;5007755;28;20397;-82
2021/07/24 02:32:01;;;;;;;18.23;16.15;;;;;;;18.21;71.92;100355.06;5010993;28;20044;-82
2021/07/24 02:34:26;;;;;;;17.70;14.57;;;;;;;18.13;72.00;100356.28;5007015;28;20026;-82
2021/07/24 02:36:52;;;;;;;20.45;15.48;;;;;;;18.07;72.70;100352.97;5009337;28;20101;-82
2021/07/24 02:39:17;;;;;;;16.65;14.88;;;;;;;18.01;72.31;100347.88;5007471;28;20033;-82
2021/07/24 02:41:43;;;;;;;19.20;15.55;;;;;;;17.98;72.68;100348.00;5004016;28;20030;-81
2021/07/24 02:44:09;;;;;;;19.92;15.55;;;;;;;17.91;72.77;100345.56;5009025;28;20119;-81
2021/07/24 02:46:36;;;;;;;18.88;15.80;;;;;;;17.88;73.01;100343.00;5008087;28;20030;-82
2021/07/24 02:49:02;;;;;;;17.95;15.43;;;;;;;17.84;72.96;100341.41;5012586;28;20096;-82
2021/07/24 02:51:29;;;;;;;18.13;15.30;;;;;;;17.81;73.09;100341.50;5010286;28;20030;-82
2021/07/24 02:53:56;;;;;;;17.30;14.70;;;;;;;17.78;72.74;100343.41;5022625;28;20034;-81
2021/07/24 02:56:22;;;;;;;22.67;16.20;;;;;;;17.71;73.12;100335.63;5013375;28;20527;-81
2021/07/24 02:58:47;;;;;;;19.15;16.27;;;;;;;17.65;73.38;100343.88;5025989;28;20076;-81
2021/07/24 03:01:13;;;;;;;20.33;16.67;;;;;;;17.61;73.67;100336.06;5028366;28;20033;-82
2021/07/24 03:03:38;;;;;;;19.23;16.63;;;;;;;17.57;73.57;100329.94;5012448;28;20447;-82
2021/07/24 03:06:03;;;;;;;21.95;16.10;;;;;;;17.53;73.68;100336.34;5007006;28;20481;-81
2021/07/24 03:08:29;;;;;;;20.27;15.80;;;;;;;17.51;73.95;100331.06;5012255;28;20048;-81
2021/07/24 03:10:54;;;;;;;21.50;16.63;;;;;;;17.46;73.90;100333.03;5011519;28;20049;-82
2021/07/24 03:13:19;;;;;;;17.77;15.40;;;;;;;17.41;74.24;100329.66;5005413;28;20030;-81
2021/07/24 03:15:45;;;;;;;18.60;16.27;;;;;;;17.38;74.37;100329.78;5009842;28;20542;-82
2021/07/24 03:18:11;;;;;;;19.42;15.35;;;;;;;17.37;74.19;100333.38;5012519;28;20041;-82
2021/07/24 03:20:36;;;;;;;20.27;16.00;;;;;;;17.35;74.36;100324.56;5009605;28;20034;-81
2021/07/24 03:23:01;;;;;;;19.80;15.75;;;;;;;17.33;74.64;100323.75;5012006;28;20042;-81
2021/07/24 03:25:27;;;;;;;19.55;16.20;;;;;;;17.31;74.53;100326.47;5011424;28;20026;-82
2021/07/24 03:27:54;;;;;;;20.77;17.70;;;;;;;17.28;75.04;100323.03;5022400;28;20038;-81
2021/07/24 03:30:19;;;;;;;20.38;16.30;;;;;;;17.24;74.97;100330.31;5018250;28;20034;-81
2021/07/24 03:32:44;;;;;;;20.88;16.60;;;;;;;17.20;75.34;100325.13;5010466;28;20041;-81
2021/07/24 03:35:10;;;;;;;21.83;17.05;;;;;;;17.20;75.49;100319.78;5013355;28;20116;-82
2021/07/24 03:37:35;;;;;;;19.35;16.65;;;;;;;17.17;75.69;100320.78;5009767;28;20062;-81
2021/07/24 03:40:01;;;;;;;21.48;16.92;;;;;;;17.15;76.03;100321.75;5012181;28;20121;-81
2021/07/24 03:42:26;;;;;;;23.33;17.50;;;;;;;17.13;76.12;100321.81;5008744;28;20046;-81
2021/07/24 03:44:51;;;;;;;22.58;16.75;;;;;;;17.12;76.16;100319.22;5004998;28;20102;-81
2021/07/24 03:47:16;;;;;;;25.17;16.33;;;;;;;17.15;76.31;100327.09;5005516;28;20501;-81
2021/07/24 03:49:42;;;;;;;21.55;17.10;;;;;;;17.19;76.41;100326.06;5007258;28;20404;-81
2021/07/24 03:52:07;;;;;;;19.65;16.13;;;;;;;17.23;76.21;100330.34;5005067;28;20497;-81
2021/07/24 03:54:33;;;;;;;21.05;16.85;;;;;;;17.27;75.75;100331.97;5008054;28;20558;-81
2021/07/24 03:56:58;;;;;;;21.42;17.58;;;;;;;17.28;75.91;100336.38;5015721;28;20060;-81
2021/07/24 03:59:23;;;;;;;19.92;16.40;;;;;;;17.31;75.51;100345.13;5012762;28;20503;-81
2021/07/24 04:01:51;;;;;;;21.67;17.13;;;;;;;17.32;76.14;100340.69;5004588;28;20042;-81
2021/07/24 04:04:17;;;;;;;18.67;16.70;;;;;;;17.36;75.81;100334.28;5006342;28;20037;-81
2021/07/24 04:06:42;;;;;;;23.48;19.10;;;;;;;17.38;75.90;100340.44;5011702;28;20034;-81
2021/07/24 04:09:08;;;;;;;23.75;18.55;;;;;;;17.36;76.68;100336.97;5006071;28;20042;-81
2021/07/24 04:11:35;;;;;;;20.52;17.63;;;;;;;17.36;76.19;100336.97;5007428;28;20033;-81
2021/07/24 04:14:02;;;;;;;22.35;18.08;;;;;;;17.40;76.18;100337.75;5004376;28;20076;-81
2021/07/24 04:16:28;;;;;;;23.73;19.30;;;;;;;17.45;75.91;100349.97;5007288;28;20042;-81
2021/07/24 04:18:54;;;;;;;24.80;18.38;;;;;;;17.49;75.89;100353.38;5019578;28;20441;-81
2021/07/24 04:21:20;;;;;;;21.90;18.52;;;;;;;17.53;75.85;100352.34;5006981;28;20087;-81
2021/07/24 04:23:45;;;;;;;23.20;20.15;;;;;;;17.59;75.74;100343.25;5004840;28;20591;-81
2021/07/24 04:26:11;;;;;;;23.90;18.80;;;;;;;17.56;75.73;100348.69;4985145;28;20037;-81
2021/07/24 04:28:36;;;;;;;21.15;18.52;;;;;;;17.55;75.75;100345.13;5006242;28;20072;-81
2021/07/24 04:31:02;;;;;;;22.67;18.50;;;;;;;17.56;75.81;100346.91;5006048;28;20034;-81
2021/07/24 04:33:28;;;;;;;20.05;16.50;;;;;;;17.61;75.72;100350.25;5004584;28;20045;-81
2021/07/24 04:35:53;;;;;;;23.65;17.77;;;;;;;17.67;75.08;100352.69;5005665;28;20058;-81
2021/07/24 04:38:18;;;;;;;24.13;17.73;;;;;;;17.73;75.13;100356.91;5004310;28;20046;-81
2021/07/24 04:40:47;;;;;;;21.15;17.75;;;;;;;17.79;74.96;100354.06;5021986;28;20125;-81
2021/07/24 04:43:13;;;;;;;22.85;18.73;;;;;;;17.83;74.31;100361.00;5003154;28;20030;-81
2021/07/24 04:45:43;;;;;;;23.65;19.58;;;;;;;17.91;74.56;100361.56;5017881;28;20052;-81
2021/07/24 04:48:09;;;;;;;21.05;17.23;;;;;;;17.90;74.71;100370.53;5006407;28;20519;-81
2021/07/24 04:50:34;;;;;;;21.75;19.20;;;;;;;17.87;74.66;100372.44;5004380;28;20052;-81
2021/07/24 04:53:02;;;;;;;24.17;17.52;;;;;;;17.94;74.15;100368.59;5005383;28;20034;-81
2021/07/24 04:55:27;;;;;;;22.00;18.67;;;;;;;18.02;74.30;100370.97;5003562;28;20038;-81
2021/07/24 04:57:53;;;;;;;18.83;16.60;;;;;;;18.13;73.86;100376.75;5003547;28;20030;-81
2021/07/24 05:00:19;;;;;;;22.05;18.73;;;;;;;18.21;73.96;100369.31;5006213;28;20042;-81
2021/07/24 05:02:45;;;;;;;23.65;17.95;;;;;;;18.29;73.42;100371.69;4999126;28;20030;-81
2021/07/24 05:05:11;;;;;;;21.77;18.65;;;;;;;18.33;73.29;100374.16;5001542;28;20034;-82
2021/07/24 05:07:37;;;;;;;20.55;16.98;;;;;;;18.45;72.98;100377.28;5002126;28;20089;-81
2021/07/24 05:10:08;;;;;;;21.23;17.98;;;;;;;18.54;72.68;100374.19;5021283;28;20444;-81
2021/07/24 05:12:33;;;;;;;23.10;18.15;;;;;;;18.58;72.50;100375.81;5002667;28;20408;-81
2021/07/24 05:14:58;;;;;;;21.08;17.80;;;;;;;18.66;72.69;100371.03;5005137;28;20034;-81
2021/07/24 05:17:24;;;;;;;19.58;16.45;;;;;;;18.72;72.36;100380.59;5004422;28;20459;-82
2021/07/24 05:19:49;;;;;;;19.55;17.13;;;;;;;18.83;72.19;100379.22;5005436;28;20400;-81
2021/07/24 05:22:15;;;;;;;18.90;16.88;;;;;;;18.94;71.60;100380.56;5003672;28;20496;-81
2021/07/24 05:24:45;;;;;;;18.70;15.68;;;;;;;19.03;71.17;100382.84;5001953;28;20039;-81
2021/07/24 05:27:11;;;;;;;20.58;17.13;;;;;;;19.10;71.10;100376.31;5003982;28;20030;-81
2021/07/24 05:29:37;;;;;;;20.42;17.67;;;;;;;19.16;70.97;100376.03;4998597;28;20045;-81
2021/07/24 05:32:02;;;;;;;17.88;15.98;;;;;;;19.23;70.52;100371.25;5003528;28;20044;-81
2021/07/24 05:34:28;;;;;;;18.45;16.55;;;;;;;19.35;70.52;100372.53;5002686;28;20076;-82
2021/07/24 05:36:53;;;;;;;20.85;17.73;;;;;;;19.43;70.47;100373.91;5005976;28;20066;-81
2021/07/24 05:39:19;;;;;;;22.92;16.77;;;;;;;19.53;70.01;100363.66;5002240;28;20041;-81
2021/07/24 05:41:44;;;;;;;19.88;17.13;;;;;;;19.63;69.79;100366.78;5005019;28;20038;-81
2021/07/24 05:44:12;;;;;;;19.92;15.55;;;;;;;19.72;69.52;100369.06;5004452;28;20034;-82
2021/07/24 05:46:38;;;;;;;19.00;15.45;;;;;;;19.80;68.94;100364.22;5015909;28;20022;-82
2021/07/24 05:49:03;;;;;;;16.63;14.82;;;;;;;19.91;68.78;100363.69;5003535;28;20512;-81
2021/07/24 05:51:28;;;;;;;19.50;16.55;;;;;;;20.02;68.43;100364.06;5005892;28;20034;-81
2021/07/24 05:53:54;;;;;;;16.85;15.00;;;;;;;20.10;68.47;100363.72;5002212;28;20066;-81
2021/07/24 05:56:19;;;;;;;20.83;17.52;;;;;;;20.22;68.11;100367.59;5005658;28;20056;-82
2021/07/24 05:58:44;;;;;;;18.58;15.82;;;;;;;20.29;68.15;100361.00;5002015;28;20046;-81
2021/07/24 06:01:13;;;;;;;22.90;15.15;;;;;;;20.32;67.71;100352.78;5000285;28;20045;-82
2021/07/24 06:03:39;;;;;;;18.65;15.32;;;;;;;20.32;67.29;100348.31;5004719;28;20038;-82
2021/07/24 06:06:04;;;;;;;17.92;15.57;;;;;;;20.38;67.22;100351.63;5002059;28;20116;-82
2021/07/24 06:08:29;;;;;;;16.77;14.40;;;;;;;20.47;66.70;100345.81;5003582;28;20440;-82
2021/07/24 06:10:59;;;;;;;19.33;15.35;;;;;;;20.56;66.69;100346.22;5005197;28;20103;-81
2021/07/24 06:13:24;;;;;;;17.02;14.27;;;;;;;20.71;66.35;100351.78;5003110;28;20485;-82
2021/07/24 06:15:50;;;;;;;18.23;15.77;;;;;;;20.84;65.46;100366.28;5004669;28;20041;-81
2021/07/24 06:18:15;;;;;;;16.75;13.57;;;;;;;20.96;65.20;100360.31;5006371;28;20092;-82
2021/07/24 06:20:40;;;;;;;16.02;14.32;;;;;;;21.07;65.10;100356.19;5009962;28;20533;-81
2021/07/24 06:23:06;;;;;;;16.00;13.63;;;;;;;21.17;64.86;100349.41;5004527;28;20033;-82
2021/07/24 06:25:31;;;;;;;18.27;13.52;;;;;;;21.28;64.48;100344.31;5003172;28;20104;-82
2021/07/24 06:27:56;;;;;;;18.08;14.02;;;;;;;21.39;64.45;100338.41;5006763;28;20050;-82
2021/07/24 06:30:22;;;;;;;16.27;13.40;;;;;;;21.45;64.34;100340.75;5008374;28;20038;-82
2021/07/24 06:32:47;;;;;;;14.93;13.35;;;;;;;21.61;63.94;100344.34;5006976;28;20076;-82
2021/07/24 06:35:12;;;;;;;15.05;13.10;;;;;;;21.73;63.89;100334.72;5009086;28;20030;-82
2021/07/24 06:37:38;;;;;;;16.52;13.95;;;;;;;21.87;62.90;100334.81;5006380;28;20038;-82
2021/07/24 06:40:04;;;;;;;14.70;12.60;;;;;;;21.95;62.59;100328.16;5009060;28;20038;-82
2021/07/24 06:42:29;;;;;;;14.48;12.93;;;;;;;22.05;62.28;100329.34;5012979;28;20034;-82
2021/07/24 06:44:55;;;;;;;14.38;12.60;;;;;;;22.14;61.82;100326.16;5016333;28;20083;-82
2021/07/24 06:47:21;;;;;;;14.55;12.45;;;;;;;22.20;60.83;100309.69;5007819;28;20046;-82
2021/07/24 06:49:46;;;;;;;13.98;12.40;;;;;;;22.32;60.14;100310.78;5007378;28;20076;-82
2021/07/24 06:52:12;;;;;;;13.48;12.02;;;;;;;22.42;59.87;100311.13;5007028;28;20029;-82
2021/07/24 06:54:38;;;;;;;13.98;11.82;;;;;;;22.55;59.88;100317.50;5017584;28;20417;-82
2021/07/24 06:57:03;;;;;;;14.45;11.95;;;;;;;22.67;59.56;100300.66;5005703;28;20412;-82
2021/07/24 06:59:28;;;;;;;13.00;10.85;;;;;;;22.72;58.92;100303.06;5009000;28;20116;-82
2021/07/24 07:01:54;;;;;;;13.02;11.63;;;;;;;22.81;57.26;100304.34;5006218;28;20135;-82
2021/07/24 07:04:19;;;;;;;14.48;12.25;;;;;;;22.91;56.88;100302.81;5007603;28;20093;-82
2021/07/24 07:06:44;;;;;;;14.95;12.20;;;;;;;22.98;56.52;100298.81;5005995;28;20033;-82
2021/07/24 07:09:10;;;;;;;13.38;11.40;;;;;;;23.07;56.27;100298.25;5006899;28;20034;-82
2021/07/24 07:11:35;;;;;;;14.70;12.55;;;;;;;23.14;56.17;100299.59;5008008;28;20041;-82
2021/07/24 07:14:00;;;;;;;13.43;10.68;;;;;;;23.17;55.50;100299.41;5005594;28;20476;-82
2021/07/24 07:16:26;;;;;;;14.15;11.23;;;;;;;23.17;55.36;100290.47;5007683;28;20046;-82
2021/07/24 07:18:51;;;;;;;13.77;11.02;;;;;;;23.30;55.41;100296.81;5004183;28;20042;-82
2021/07/24 07:21:16;;;;;;;11.80;10.60;;;;;;;23.40;54.87;100289.03;5022911;28;20145;-82
2021/07/24 07:23:41;;;;;;;12.95;11.38;;;;;;;23.38;54.52;100289.13;5005331;28;20038;-82
2021/07/24 07:26:07;;;;;;;12.88;11.25;;;;;;;23.45;54.52;100292.31;5001827;28;20239;-82
2021/07/24 07:28:32;;;;;;;14.02;11.45;;;;;;;23.62;54.76;100299.28;5021942;28;20072;-82
2021/07/24 07:30:59;;;;;;;12.38;10.95;;;;;;;23.80;54.05;100308.06;5007786;28;20036;-82
2021/07/24 07:33:24;;;;;;;13.90;11.23;;;;;;;23.90;53.67;100301.09;5005760;28;20038;-82
2021/07/24 07:35:50;;;;;;;14.50;10.20;;;;;;;23.95;53.34;100292.72;5008062;28;20049;-82
2021/07/24 07:38:16;;;;;;;11.40;10.23;;;;;;;24.02;53.09;100289.50;5003731;28;20038;-82
2021/07/24 07:40:41;;;;;;;14.60;10.85;;;;;;;24.16;52.78;100285.06;5019721;28;20046;-82
2021/07/24 07:43:08;;;;;;;13.18;10.73;;;;;;;24.21;52.46;100285.59;5007099;28;20073;-82
2021/07/24 07:45:34;;;;;;;13.25;10.65;;;;;;;24.32;52.82;100288.44;5005892;28;20072;-82
2021/07/24 07:48:00;;;;;;;13.20;10.13;;;;;;;24.40;52.44;100285.22;5005450;28;20121;-82
2021/07/24 07:50:25;;;;;;;12.10;10.80;;;;;;;24.49;51.94;100279.22;5007265;28;20092;-82
2021/07/24 07:52:51;;;;;;;12.80;10.57;;;;;;;24.55;51.40;100283.34;5005340;28;20046;-80
2021/07/24 07:55:16;;;;;;;11.68;10.07;;;;;;;24.61;51.52;100282.94;5007407;28;20041;-79
2021/07/24 07:57:42;;;;;;;12.10;9.32;;;;;;;24.71;50.57;100281.34;5004635;28;20030;-80
2021/07/24 08:00:08;;;;;;;13.55;10.23;;;;;;;24.82;50.95;100286.84;5007742;28;20496;-80
2021/07/24 08:02:37;;;;;;;12.70;10.05;;;;;;;24.89;50.70;100281.91;5003602;28;20092;-79
2021/07/24 08:05:03;;;;;;;12.32;10.75;;;;;;;24.96;50.81;100279.63;5007033;28;20504;-80
2021/07/24 08:07:28;;;;;;;11.68;10.48;;;;;;;25.10;50.57;100269.56;5005364;28;20072;-80
2021/07/24 08:09:56;;;;;;;11.48;9.85;;;;;;;25.21;49.87;100279.66;5011634;28;20057;-80
2021/07/24 08:12:22;;;;;;;15.93;10.90;;;;;;;25.09;48.98;100275.94;5011109;28;20053;-80
2021/07/24 08:14:50;;;;;;;12.27;10.35;;;;;;;25.04;50.13;100272.69;5023421;28;20034;-80
2021/07/24 08:17:15;;;;;;;11.68;10.10;;;;;;;25.17;49.89;100272.72;5010745;28;20027;-80
2021/07/24 08:19:41;;;;;;;11.75;10.55;;;;;;;25.32;50.08;100274.34;5009635;28;20112;-80
2021/07/24 08:22:07;;;;;;;11.52;10.20;;;;;;;25.45;49.99;100273.47;5014747;28;20038;-80
2021/07/24 08:24:32;;;;;;;12.40;11.07;;;;;;;25.55;49.58;100274.53;5005398;28;20042;-80
2021/07/24 08:26:57;;;;;;;11.70;10.32;;;;;;;25.67;49.15;100273.59;5008652;28;20037;-80
2021/07/24 08:29:23;;;;;;;13.02;10.77;;;;;;;25.79;48.55;100272.72;5006325;28;20042;-80
2021/07/24 08:31:48;;;;;;;12.55;10.38;;;;;;;25.76;48.21;100272.09;5007873;28;20519;-80
2021/07/24 08:34:13;;;;;;;13.00;10.07;;;;;;;25.88;48.79;100270.31;5007078;28;20038;-80
2021/07/24 08:36:39;;;;;;;12.18;10.20;;;;;;;26.04;48.60;100264.63;5006639;28;20053;-80
2021/07/24 08:39:04;;;;;;;13.23;10.98;;;;;;;26.16;47.90;100264.59;5008274;28;20033;-80
2021/07/24 08:41:29;;;;;;;11.15;9.55;;;;;;;26.24;48.16;100267.56;5005290;28;20098;-80
2021/07/24 08:43:55;;;;;;;13.25;10.13;;;;;;;26.29;48.17;100263.66;5005713;28;20046;-80
2021/07/24 08:46:20;;;;;;;15.50;10.63;;;;;;;26.39;47.66;100264.69;5008201;28;20134;-80
2021/07/24 08:48:45;;;;;;;13.80;10.35;;;;;;;26.44;47.21;100266.06;5005843;28;20048;-80
2021/07/24 08:51:15;;;;;;;11.90;10.60;;;;;;;26.45;46.79;100265.06;5006045;28;20030;-80
2021/07/24 08:53:42;;;;;;;11.68;10.48;;;;;;;26.56;47.23;100260.69;5005085;28;20042;-80
2021/07/24 08:56:16;;;;;;;14.80;11.00;;;;;;;26.61;46.96;100256.66;5017915;28;20404;-80
2021/07/24 08:58:44;;;;;;;11.05;9.48;;;;;;;26.73;46.64;100256.69;5007639;28;20035;-80
2021/07/24 09:01:21;;;;;;;12.60;10.15;;;;;;;26.84;45.41;100249.44;5005078;28;20034;-80
2021/07/24 09:03:47;;;;;;;11.88;10.02;;;;;;;26.99;45.98;100241.97;5003908;28;20082;-80
2021/07/24 09:06:21;;;;;;;11.93;9.85;;;;;;;27.01;45.02;100245.44;5007372;28;20092;-80
2021/07/24 09:08:49;;;;;;;10.05;9.05;;;;;;;27.10;45.07;100247.38;5007857;28;20037;-80
2021/07/24 09:11:14;;;;;;;12.57;9.95;;;;;;;27.22;45.59;100242.00;5012095;28;20033;-80
2021/07/24 09:13:40;;;;;;;14.32;10.50;;;;;;;27.34;46.02;100246.44;5007375;28;20075;-80
2021/07/24 09:16:06;;;;;;;11.77;10.10;;;;;;;27.39;44.86;100241.50;5005950;28;20033;-80
2021/07/24 09:18:32;;;;;;;12.38;9.93;;;;;;;27.37;45.08;100243.47;5018245;28;20050;-80
2021/07/24 09:20:58;;;;;;;12.45;10.25;;;;;;;27.44;45.28;100241.13;5005954;28;20056;-80
2021/07/24 09:23:36;;;;;;;11.75;9.18;;;;;;;27.53;44.91;100240.38;5006912;28;20042;-80
2021/07/24 09:26:04;;;;;;;10.90;9.80;;;;;;;27.72;45.01;100240.59;5001607;28;20030;-80
2021/07/24 09:28:30;;;;;;;13.98;10.75;;;;;;;27.87;45.12;100240.34;5006221;28;20085;-80
2021/07/24 09:30:55;;;;;;;12.82;10.27;;;;;;;28.03;44.74;100237.19;5005887;28;20469;-80
2021/07/24 09:33:20;;;;;;;10.13;9.02;;;;;;;28.17;44.71;100237.75;5005458;28;20038;-80
2021/07/24 09:35:51;;;;;;;11.57;9.90;;;;;;;28.22;44.41;100234.66;5007275;28;20029;-80
2021/07/24 09:38:30;;;;;;;12.40;8.87;;;;;;;28.26;44.01;100236.13;5005268;28;20034;-80
2021/07/24 09:40:57;;;;;;;11.27;10.18;;;;;;;28.32;44.23;100227.47;5005593;28;20300;-80
2021/07/24 09:43:34;;;;;;;10.93;9.82;;;;;;;28.45;42.95;100229.16;5008049;28;20061;-80
2021/07/24 09:46:19;;;;;;;10.85;9.75;;;;;;;28.58;42.94;100235.25;5007036;28;20069;-80
2021/07/24 09:48:50;;;;;;;10.43;9.35;;;;;;;28.70;43.28;100236.03;5007726;28;20054;-81
2021/07/24 09:51:31;;;;;;;10.30;9.25;;;;;;;28.95;42.76;100232.03;5009366;28;20637;-81
2021/07/24 09:53:56;;;;;;;10.25;9.05;;;;;;;29.11;41.70;100231.56;5025815;28;20041;-81
2021/07/24 09:56:38;;;;;;;10.43;8.90;;;;;;;29.16;41.27;100222.03;5008832;28;20084;-81
2021/07/24 09:59:17;;;;;;;12.23;9.25;;;;;;;29.14;41.25;100224.00;5007033;28;20394;-81
2021/07/24 10:01:43;;;;;;;11.48;9.82;;;;;;;29.24;42.43;100222.19;5007293;28;20042;-80
2021/07/24 10:04:10;;;;;;;11.00;9.90;;;;;;;29.40;41.75;100223.56;5008344;28;20677;-80
2021/07/24 10:06:41;;;;;;;11.52;9.75;;;;;;;29.56;41.24;100223.03;5019350;28;20038;-80
2021/07/24 10:09:07;;;;;;;10.73;9.18;;;;;;;29.62;41.67;100212.44;5007858;28;20038;-80
2021/07/24 10:11:32;;;;;;;9.82;8.82;;;;;;;29.75;41.49;100211.34;5010239;28;20061;-80
2021/07/24 10:13:58;;;;;;;9.90;8.90;;;;;;;29.96;40.81;100214.81;5007170;28;20042;-80
2021/07/24 10:16:24;;;;;;;10.05;8.93;;;;;;;29.88;39.82;100217.38;5010720;28;20084;-80
2021/07/24 10:18:50;;;;;;;11.02;8.77;;;;;;;30.08;39.88;100210.09;5009051;28;20038;-80
2021/07/24 10:21:15;;;;;;;9.88;8.88;;;;;;;30.09;39.66;100209.94;5018216;28;20496;-80
2021/07/24 10:23:41;;;;;;;10.93;8.40;;;;;;;30.07;39.08;100209.22;4991343;28;20037;-80
2021/07/24 10:26:15;;;;;;;9.63;8.50;;;;;;;30.11;38.37;100207.94;5008440;28;20065;-81
2021/07/24 10:29:01;;;;;;;9.98;8.98;;;;;;;30.35;38.58;100209.38;5006802;28;20038;-80
2021/07/24 10:31:32;;;;;;;10.02;8.55;;;;;;;30.51;38.90;100203.34;5005432;28;20034;-80
2021/07/24 10:34:02;;;;;;;9.27;8.37;;;;;;;30.59;37.22;100200.75;5008387;28;20041;-80
2021/07/24 10:36:40;;;;;;;9.55;8.55;;;;;;;30.65;37.54;100193.84;5007696;28;20767;-80
2021/07/24 10:39:15;;;;;;;8.63;7.82;;;;;;;30.72;37.57;100198.56;5007025;28;20091;-80
2021/07/24 10:41:41;;;;;;;8.75;7.88;;;;;;;30.93;36.72;100192.94;5009346;28;20041;-80
2021/07/24 10:44:09;;;;;;;9.80;8.77;;;;;;;30.95;36.53;100196.38;5007647;28;20377;-80
2021/07/24 10:46:40;;;;;;;9.55;8.57;;;;;;;31.00;35.75;100193.22;5013681;28;20081;-80
2021/07/24 10:49:06;;;;;;;10.68;8.38;;;;;;;31.13;36.89;100191.00;5010764;28;20148;-80
2021/07/24 10:52:01;;;;;;;10.35;8.05;;;;;;;31.30;35.85;100178.41;5007648;28;20022;-80
2021/07/24 10:54:30;;;;;;;11.25;8.00;;;;;;;31.46;34.60;100175.06;5008068;28;20094;-80
2021/07/24 10:56:56;;;;;;;10.07;8.52;;;;;;;31.47;35.17;100173.19;5007243;28;20037;-80
2021/07/24 10:59:24;;;;;;;9.65;7.53;;;;;;;31.55;35.71;100171.41;5019356;28;20054;-80
2021/07/24 11:01:58;;;;;;;8.95;8.05;;;;;;;31.72;33.95;100161.53;5008040;28;20046;-80
2021/07/24 11:04:37;;;;;;;9.13;7.43;;;;;;;31.83;34.39;100158.59;5007748;28;20049;-80
2021/07/24 11:07:12;;;;;;;9.48;7.75;;;;;;;31.93;33.08;100157.66;5020349;28;20030;-80
2021/07/24 11:09:39;;;;;;;9.60;8.50;;;;;;;31.91;33.78;100154.19;5006074;28;20065;-80
2021/07/24 11:12:12;;;;;;;9.23;8.00;;;;;;;31.81;33.75;100159.75;5004316;28;20046;-80
2021/07/24 11:14:37;;;;;;;10.10;7.60;;;;;;;31.95;33.34;100161.09;5012548;28;20101;-80
2021/07/24 11:17:05;;;;;;;8.93;8.13;;;;;;;32.20;33.22;100156.69;5012937;28;20033;-80